createdAt,value
2022-11-07T00:00:16.906Z,11.60
2022-11-07T00:02:45.192Z,11.60
2022-11-07T00:05:13.602Z,11.60
2022-11-07T00:07:41.912Z,11.60
2022-11-07T00:10:10.940Z,11.70
2022-11-07T00:12:39.346Z,11.70
2022-11-07T00:15:09.039Z,11.80
2022-11-07T00:17:38.943Z,11.80
2022-11-07T00:20:08.734Z,11.80
2022-11-07T00:22:37.085Z,11.80
2022-11-07T00:25:05.939Z,11.80
2022-11-07T00:27:34.349Z,11.70
2022-11-07T00:30:02.726Z,11.70
2022-11-07T00:32:31.009Z,11.70
2022-11-07T00:35:02.125Z,11.60
2022-11-07T00:37:30.460Z,11.60
2022-11-07T00:39:58.836Z,11.60
2022-11-07T00:42:27.081Z,11.70
2022-11-07T00:44:56.368Z,11.70
2022-11-07T00:47:24.643Z,11.80
2022-11-07T00:49:52.972Z,11.90
2022-11-07T00:52:22.803Z,11.80
2022-11-07T00:54:53.229Z,11.80
2022-11-07T00:57:21.698Z,11.90
2022-11-07T00:59:49.991Z,11.90
2022-11-07T01:02:18.476Z,11.90
2022-11-07T01:05:04.255Z,11.90
2022-11-07T01:07:36.119Z,11.90
2022-11-07T01:10:05.221Z,11.80
2022-11-07T01:12:34.334Z,11.70
2022-11-07T01:15:03.456Z,11.70
2022-11-07T01:17:31.757Z,11.70
2022-11-07T01:20:00.161Z,11.70
2022-11-07T01:22:28.441Z,11.70
2022-11-07T01:24:58.477Z,11.60
2022-11-07T01:27:26.938Z,11.50
2022-11-07T01:29:55.297Z,11.50
2022-11-07T01:32:24.150Z,11.40
2022-11-07T01:34:52.464Z,11.40
2022-11-07T01:37:20.715Z,11.40
2022-11-07T01:39:49.235Z,11.30
2022-11-07T01:42:19.148Z,11.20
2022-11-07T01:44:55.584Z,11.20
2022-11-07T01:47:27.065Z,11.10
2022-11-07T01:49:55.980Z,11.00
2022-11-07T01:52:27.582Z,11.00
2022-11-07T01:55:11.426Z,10.90
2022-11-07T01:57:44.838Z,10.80
2022-11-07T02:00:16.917Z,10.70
2022-11-07T02:02:46.525Z,10.70
2022-11-07T02:05:21.061Z,10.60
2022-11-07T02:07:49.593Z,10.60
2022-11-07T02:10:18.892Z,10.60
2022-11-07T02:12:49.169Z,10.60
2022-11-07T02:15:17.453Z,10.60
2022-11-07T02:17:45.721Z,10.60
2022-11-07T02:20:14.197Z,10.60
2022-11-07T02:22:50.268Z,10.60
2022-11-07T02:25:21.106Z,10.60
2022-11-07T02:27:54.976Z,10.50
2022-11-07T02:30:26.017Z,10.50
2022-11-07T02:32:54.396Z,10.50
2022-11-07T02:35:37.978Z,10.50
2022-11-07T02:38:10.648Z,10.60
2022-11-07T02:40:41.295Z,10.60
2022-11-07T02:43:13.432Z,10.70
2022-11-07T02:45:45.501Z,10.80
2022-11-07T02:48:13.843Z,10.80
2022-11-07T02:50:42.572Z,10.80
2022-11-07T02:53:11.387Z,10.70
2022-11-07T02:55:41.542Z,10.70
2022-11-07T02:58:09.980Z,10.60
2022-11-07T03:00:38.370Z,10.60
2022-11-07T03:03:06.800Z,10.60
2022-11-07T03:05:35.208Z,10.60
2022-11-07T03:08:03.616Z,10.60
2022-11-07T03:10:32.193Z,10.60
2022-11-07T03:13:05.298Z,10.50
2022-11-07T03:15:33.852Z,10.50
2022-11-07T03:18:02.322Z,10.40
2022-11-07T03:20:30.890Z,10.40
2022-11-07T03:22:59.280Z,10.40
2022-11-07T03:25:27.733Z,10.40
2022-11-07T03:27:55.988Z,10.40
2022-11-07T03:30:25.911Z,10.40
2022-11-07T03:32:54.392Z,10.40
2022-11-07T03:35:23.929Z,10.40
2022-11-07T03:37:52.694Z,10.30
2022-11-07T03:40:21.102Z,10.30
2022-11-07T03:42:49.645Z,10.20
2022-11-07T03:45:18.606Z,10.20
2022-11-07T03:47:48.925Z,10.10
2022-11-07T03:50:19.966Z,10.00
2022-11-07T03:52:49.621Z,10.00
2022-11-07T03:55:18.362Z,10.00
2022-11-07T03:57:47.810Z,10.00
2022-11-07T04:00:17.895Z,10.00
2022-11-07T04:02:48.014Z,9.90
2022-11-07T04:05:16.565Z,9.90
2022-11-07T04:07:45.005Z,9.90
2022-11-07T04:10:13.842Z,9.90
2022-11-07T04:12:59.396Z,9.90
2022-11-07T04:15:44.802Z,9.80
2022-11-07T04:18:14.737Z,9.90
2022-11-07T04:20:43.000Z,9.80
2022-11-07T04:23:11.555Z,9.80
2022-11-07T04:25:57.972Z,9.90
2022-11-07T04:28:26.320Z,9.90
2022-11-07T04:30:54.697Z,10.00
2022-11-07T04:33:24.488Z,10.00
2022-11-07T04:35:52.960Z,10.10
2022-11-07T04:38:21.327Z,10.10
2022-11-07T04:40:54.856Z,10.20
2022-11-07T04:43:23.509Z,10.20
2022-11-07T04:45:51.995Z,10.20
2022-11-07T04:48:20.697Z,10.20
2022-11-07T04:50:51.202Z,10.10
2022-11-07T04:53:20.165Z,10.10
2022-11-07T04:55:48.609Z,10.00
2022-11-07T04:58:16.916Z,10.00
2022-11-07T05:00:45.277Z,10.00
2022-11-07T05:03:13.980Z,10.00
2022-11-07T05:05:42.682Z,10.00
2022-11-07T05:08:12.696Z,10.00
2022-11-07T05:10:41.961Z,10.00
2022-11-07T05:13:10.228Z,10.00
2022-11-07T05:15:39.929Z,10.00
2022-11-07T05:18:08.358Z,10.00
2022-11-07T05:20:39.036Z,10.00
2022-11-07T05:23:18.810Z,10.00
2022-11-07T05:25:51.200Z,10.00
2022-11-07T05:28:29.985Z,10.10
2022-11-07T05:31:00.609Z,10.10
2022-11-07T05:33:29.580Z,10.10
2022-11-07T05:35:59.249Z,10.10
2022-11-07T05:38:27.572Z,10.10
2022-11-07T05:40:57.560Z,10.10
2022-11-07T05:43:25.968Z,10.00
2022-11-07T05:45:54.448Z,10.00
2022-11-07T05:48:22.967Z,10.10
2022-11-07T05:50:51.477Z,10.10
2022-11-07T05:53:21.571Z,10.10
2022-11-07T05:55:50.360Z,10.10
2022-11-07T05:58:21.005Z,10.10
2022-11-07T06:00:50.156Z,10.00
2022-11-07T06:03:20.505Z,10.10
2022-11-07T06:05:49.577Z,10.10
2022-11-07T06:08:17.977Z,10.20
2022-11-07T06:10:46.461Z,10.30
2022-11-07T06:13:16.960Z,10.30
2022-11-07T06:15:47.603Z,10.40
2022-11-07T06:18:18.048Z,10.40
2022-11-07T06:20:47.308Z,10.50
2022-11-07T06:23:16.675Z,10.60
2022-11-07T06:25:45.316Z,10.80
2022-11-07T06:28:15.257Z,10.80
2022-11-07T06:30:43.662Z,11.00
2022-11-07T06:33:15.888Z,11.00
2022-11-07T06:35:45.574Z,11.10
2022-11-07T06:38:17.318Z,11.20
2022-11-07T06:40:46.048Z,11.30
2022-11-07T06:43:15.998Z,11.30
2022-11-07T06:45:45.776Z,11.40
2022-11-07T06:48:16.705Z,11.50
2022-11-07T06:50:45.254Z,11.50
2022-11-07T06:53:15.004Z,11.60
2022-11-07T06:55:43.655Z,11.60
2022-11-07T06:58:12.174Z,11.70
2022-11-07T07:00:40.654Z,11.70
2022-11-07T07:03:09.267Z,11.70
2022-11-07T07:05:39.563Z,11.80
2022-11-07T07:08:15.326Z,11.80
2022-11-07T07:10:47.888Z,11.90
2022-11-07T07:13:16.984Z,11.90
2022-11-07T07:15:54.241Z,12.00
2022-11-07T07:18:23.494Z,12.00
2022-11-07T07:20:54.439Z,12.10
2022-11-07T07:23:23.046Z,12.10
2022-11-07T07:25:52.930Z,12.20
2022-11-07T07:28:21.599Z,12.20
2022-11-07T07:30:52.149Z,12.30
2022-11-07T07:33:21.240Z,12.30
2022-11-07T07:35:50.221Z,12.40
2022-11-07T07:38:20.599Z,12.40
2022-11-07T07:40:49.141Z,12.50
2022-11-07T07:43:18.145Z,12.50
2022-11-07T07:45:47.121Z,12.60
2022-11-07T07:48:16.177Z,12.60
2022-11-07T07:50:44.865Z,12.70
2022-11-07T07:53:13.280Z,12.80
2022-11-07T07:55:43.346Z,12.90
2022-11-07T07:58:12.560Z,13.00
2022-11-07T08:00:41.660Z,13.10
2022-11-07T08:03:12.352Z,13.20
2022-11-07T08:05:41.373Z,13.30
2022-11-07T08:08:10.439Z,13.40
2022-11-07T08:10:43.245Z,13.40
2022-11-07T08:13:15.660Z,13.40
2022-11-07T08:15:53.166Z,13.50
2022-11-07T08:18:31.610Z,13.60
2022-11-07T08:21:00.297Z,13.60
2022-11-07T08:23:59.595Z,13.60
2022-11-07T08:27:03.600Z,13.60
2022-11-07T08:29:33.611Z,13.60
2022-11-07T08:32:18.724Z,13.60
2022-11-07T08:34:49.162Z,13.70
2022-11-07T08:37:17.949Z,13.70
2022-11-07T08:39:47.107Z,13.70
2022-11-07T08:45:57.054Z,13.80
2022-11-07T08:48:25.687Z,13.90
2022-11-07T08:50:58.373Z,13.90
2022-11-07T08:53:28.286Z,13.90
2022-11-07T08:56:03.299Z,14.00
2022-11-07T08:58:31.960Z,14.00
2022-11-07T09:01:03.337Z,14.10
2022-11-07T09:03:46.264Z,14.10
2022-11-07T09:06:18.996Z,14.30
2022-11-07T09:08:50.454Z,14.40
2022-11-07T09:11:20.135Z,14.50
2022-11-07T09:13:48.708Z,14.40
2022-11-07T09:16:20.776Z,14.40
2022-11-07T09:18:55.234Z,14.50
2022-11-07T09:21:26.915Z,14.50
2022-11-07T09:23:58.163Z,14.50
2022-11-07T09:26:32.592Z,14.50
2022-11-07T09:29:01.532Z,14.60
2022-11-07T09:31:31.541Z,14.70
2022-11-07T09:34:00.000Z,14.70
2022-11-07T09:36:28.652Z,14.70
2022-11-07T09:38:59.328Z,14.70
2022-11-07T09:41:43.326Z,14.70
2022-11-07T09:44:30.956Z,14.70
2022-11-07T09:47:23.177Z,14.80
2022-11-07T09:49:54.335Z,14.70
2022-11-07T09:52:29.922Z,14.60
2022-11-07T09:55:03.921Z,14.50
2022-11-07T09:57:37.732Z,14.30
2022-11-07T10:00:11.431Z,14.30
2022-11-07T10:02:44.949Z,14.20
2022-11-07T10:05:16.669Z,14.10
2022-11-07T10:07:55.514Z,14.10
2022-11-07T10:10:35.078Z,14.10
2022-11-07T10:13:31.846Z,14.10
2022-11-07T10:16:08.921Z,14.10
2022-11-07T10:18:52.494Z,14.10
2022-11-07T10:21:37.663Z,14.10
2022-11-07T10:24:28.574Z,14.10
2022-11-07T10:26:58.497Z,14.10
2022-11-07T10:29:44.753Z,14.20
2022-11-07T10:32:21.449Z,14.10
2022-11-07T10:35:02.361Z,14.30
2022-11-07T10:37:31.949Z,14.30
2022-11-07T10:40:00.480Z,14.30
2022-11-07T10:42:32.473Z,14.40
2022-11-07T10:45:01.405Z,14.40
2022-11-07T10:47:30.337Z,14.40
2022-11-07T10:50:03.055Z,14.50
2022-11-07T10:52:31.748Z,14.50
2022-11-07T10:55:08.566Z,14.60
2022-11-07T10:57:37.325Z,14.60
2022-11-07T11:00:21.494Z,14.60
2022-11-07T11:02:51.133Z,14.70
2022-11-07T11:05:26.484Z,14.60
2022-11-07T11:08:24.311Z,14.70
2022-11-07T11:10:52.773Z,14.80
2022-11-07T11:13:28.564Z,14.80
2022-11-07T11:16:05.252Z,14.80
2022-11-07T11:18:34.404Z,14.90
2022-11-07T11:21:06.827Z,14.90
2022-11-07T11:23:38.849Z,15.10
2022-11-07T11:26:09.333Z,15.10
2022-11-07T11:28:42.377Z,15.20
2022-11-07T11:31:16.515Z,15.30
2022-11-07T11:33:48.632Z,15.20
2022-11-07T11:36:22.849Z,15.20
2022-11-07T11:38:54.915Z,15.10
2022-11-07T11:41:29.155Z,15.20
2022-11-07T11:44:03.850Z,15.10
2022-11-07T11:46:39.181Z,15.10
2022-11-07T11:49:14.662Z,15.10
2022-11-07T11:51:46.886Z,15.10
2022-11-07T11:54:19.141Z,15.00
2022-11-07T11:56:55.409Z,15.10
2022-11-07T11:59:43.711Z,15.20
2022-11-07T12:02:34.986Z,15.30
2022-11-07T12:05:11.196Z,15.40
2022-11-07T12:07:55.452Z,15.70
2022-11-07T12:14:24.590Z,17.40
2022-11-07T12:16:59.820Z,17.10
2022-11-07T12:19:36.985Z,16.60
2022-11-07T12:22:18.940Z,16.60
2022-11-07T12:24:56.663Z,16.70
2022-11-07T12:27:34.719Z,17.30
2022-11-07T12:30:12.031Z,17.40
2022-11-07T12:32:53.154Z,17.50
2022-11-07T12:35:43.692Z,17.40
2022-11-07T12:38:43.237Z,17.00
2022-11-07T12:41:24.170Z,16.70
2022-11-07T12:44:05.733Z,16.70
2022-11-07T12:46:46.439Z,16.70
2022-11-07T12:49:35.413Z,16.50
2022-11-07T12:52:15.354Z,16.50
2022-11-07T12:54:49.765Z,16.40
2022-11-07T12:57:22.431Z,16.20
2022-11-07T12:59:55.815Z,16.00
2022-11-07T13:02:34.825Z,15.90
2022-11-07T13:05:17.155Z,15.80
2022-11-07T13:07:53.477Z,15.80
2022-11-07T13:10:26.513Z,15.90
2022-11-07T13:13:00.589Z,15.90
2022-11-07T13:15:31.878Z,15.90
2022-11-07T13:18:21.260Z,16.00
2022-11-07T13:21:00.625Z,16.00
2022-11-07T13:23:29.455Z,16.00
2022-11-07T13:26:14.859Z,16.00
2022-11-07T13:28:59.867Z,15.90
2022-11-07T13:31:34.012Z,15.90
2022-11-07T13:34:28.214Z,15.90
2022-11-07T13:37:02.857Z,15.90
2022-11-07T13:39:32.014Z,15.90
2022-11-07T13:42:01.761Z,15.90
2022-11-07T13:44:36.708Z,15.80
2022-11-07T13:47:12.193Z,15.80
2022-11-07T13:49:44.961Z,15.80
2022-11-07T13:52:18.773Z,15.80
2022-11-07T13:54:53.851Z,15.80
2022-11-07T13:57:28.557Z,15.90
2022-11-07T14:00:01.794Z,16.10
2022-11-07T14:02:40.870Z,16.00
2022-11-07T14:05:18.958Z,16.10
2022-11-07T14:07:50.787Z,16.20
2022-11-07T14:10:26.480Z,16.20
2022-11-07T14:13:00.211Z,16.30
2022-11-07T14:15:31.982Z,16.30
2022-11-07T14:18:00.586Z,16.20
2022-11-07T14:20:29.872Z,16.20
2022-11-07T14:23:01.328Z,16.20
2022-11-07T14:25:31.518Z,16.30
2022-11-07T14:28:01.084Z,16.20
2022-11-07T14:30:32.270Z,16.20
2022-11-07T14:33:02.770Z,16.30
2022-11-07T14:35:33.544Z,16.50
2022-11-07T14:38:10.901Z,16.50
2022-11-07T14:40:39.764Z,16.30
2022-11-07T14:43:08.389Z,16.00
2022-11-07T14:46:10.799Z,16.00
2022-11-07T14:48:28.605Z,15.90
2022-11-07T14:50:58.317Z,15.90
2022-11-07T14:53:29.585Z,15.90
2022-11-07T14:56:00.060Z,15.80
2022-11-07T14:58:31.658Z,15.80
2022-11-07T15:01:13.814Z,15.80
2022-11-07T15:03:53.285Z,15.80
2022-11-07T15:06:24.963Z,15.80
2022-11-07T15:08:57.959Z,15.80
2022-11-07T15:11:30.393Z,15.80
2022-11-07T15:14:00.067Z,15.80
2022-11-07T15:16:34.949Z,15.80
2022-11-07T15:19:05.061Z,15.70
2022-11-07T15:21:35.090Z,15.70
2022-11-07T15:24:34.484Z,15.60
2022-11-07T15:27:06.344Z,15.60
2022-11-07T15:29:37.202Z,15.50
2022-11-07T15:32:15.064Z,15.50
2022-11-07T15:37:32.057Z,15.40
2022-11-07T15:40:00.631Z,15.40
2022-11-07T15:42:29.135Z,15.40
2022-11-07T15:44:57.493Z,15.40
2022-11-07T15:47:27.452Z,15.30
2022-11-07T15:49:56.637Z,15.30
2022-11-07T15:52:24.996Z,15.30
2022-11-07T15:54:53.438Z,15.30
2022-11-07T15:57:21.934Z,15.30
2022-11-07T15:59:50.642Z,15.30
2022-11-07T16:02:19.588Z,15.20
2022-11-07T16:04:49.653Z,15.20
2022-11-07T16:07:21.039Z,15.20
2022-11-07T16:09:49.751Z,15.20
2022-11-07T16:12:19.772Z,15.20
2022-11-07T16:14:48.421Z,15.20
2022-11-07T16:17:18.151Z,15.10
2022-11-07T16:19:48.346Z,15.10
2022-11-07T16:22:17.600Z,15.10
2022-11-07T16:24:46.005Z,15.10
2022-11-07T16:27:17.619Z,15.10
2022-11-07T16:29:46.134Z,15.10
2022-11-07T16:32:18.268Z,15.10
2022-11-07T16:34:48.990Z,15.10
2022-11-07T16:37:17.461Z,15.20
2022-11-07T16:39:45.883Z,15.20
2022-11-07T16:42:16.365Z,15.20
2022-11-07T16:44:45.197Z,15.20
2022-11-07T16:47:16.020Z,15.20
2022-11-07T16:49:44.510Z,15.30
2022-11-07T16:52:16.486Z,15.20
2022-11-07T16:54:45.657Z,15.30
2022-11-07T16:57:15.549Z,15.30
2022-11-07T16:59:44.797Z,15.30
2022-11-07T17:02:21.198Z,15.30
2022-11-07T17:04:50.928Z,15.30
2022-11-07T17:07:22.817Z,15.30
2022-11-07T17:09:51.728Z,15.30
2022-11-07T17:12:23.165Z,15.30
2022-11-07T17:14:52.638Z,15.30
2022-11-07T17:17:21.659Z,15.30
2022-11-07T17:19:50.168Z,15.30
2022-11-07T17:22:18.885Z,15.30
2022-11-07T17:24:49.174Z,15.30
2022-11-07T17:27:23.293Z,15.30
2022-11-07T17:29:52.511Z,15.30
2022-11-07T17:32:43.527Z,15.30
2022-11-07T17:36:05.478Z,15.30
2022-11-07T17:38:11.073Z,15.20
2022-11-07T17:52:43.659Z,15.20
2022-11-07T17:55:15.073Z,15.20
2022-11-07T18:02:26.758Z,15.20
2022-11-07T18:05:56.633Z,15.20
2022-11-07T18:09:02.210Z,15.20
2022-11-07T18:11:51.703Z,15.10
2022-11-07T18:18:20.686Z,15.20
2022-11-07T18:25:53.017Z,15.10
2022-11-07T18:32:36.321Z,15.10
2022-11-07T18:39:37.047Z,15.10
2022-11-07T18:42:07.233Z,15.10
2022-11-07T18:44:35.801Z,15.10
2022-11-07T18:47:04.280Z,15.10
2022-11-07T18:49:33.028Z,15.10
2022-11-07T18:52:01.364Z,15.00
2022-11-07T18:54:30.115Z,15.00
2022-11-07T18:56:58.456Z,15.00
2022-11-07T18:59:28.537Z,15.00
2022-11-07T19:01:56.988Z,15.00
2022-11-07T19:04:25.402Z,15.00
2022-11-07T19:06:59.468Z,15.00
2022-11-07T19:09:29.955Z,15.00
2022-11-07T19:11:59.191Z,15.00
2022-11-07T19:14:30.348Z,15.00
2022-11-07T19:16:59.043Z,15.00
2022-11-07T19:19:27.665Z,15.00
2022-11-07T19:21:56.462Z,15.00
2022-11-07T19:24:36.183Z,15.00
2022-11-07T19:27:04.692Z,15.00
2022-11-07T19:29:34.919Z,15.00
2022-11-07T19:32:03.953Z,15.00
2022-11-07T19:34:33.228Z,15.00
2022-11-07T19:37:02.177Z,15.00
2022-11-07T19:39:32.499Z,15.00
2022-11-07T19:42:00.984Z,15.00
2022-11-07T19:44:30.137Z,15.00
2022-11-07T19:46:59.986Z,15.10
2022-11-07T19:49:28.363Z,15.00
2022-11-07T19:51:56.853Z,15.00
2022-11-07T19:54:25.273Z,15.00
2022-11-07T19:56:57.426Z,15.00
2022-11-07T19:59:26.505Z,15.00
2022-11-07T20:02:25.810Z,15.00
2022-11-07T20:04:44.718Z,15.00
2022-11-07T20:07:13.179Z,15.00
2022-11-07T20:09:41.848Z,15.00
2022-11-07T20:12:10.965Z,15.00
2022-11-07T20:14:39.783Z,14.90
2022-11-07T20:17:08.555Z,14.80
2022-11-07T20:19:38.139Z,14.70
2022-11-07T20:22:08.323Z,14.70
2022-11-07T20:24:36.605Z,14.60
2022-11-07T20:27:05.332Z,14.50
2022-11-07T20:29:33.885Z,14.50
2022-11-07T20:32:02.513Z,14.40
2022-11-07T20:34:30.936Z,14.40
2022-11-07T20:36:59.629Z,14.30
2022-11-07T20:39:29.709Z,14.30
2022-11-07T20:41:58.174Z,14.20
2022-11-07T20:44:28.373Z,14.10
2022-11-07T20:46:57.517Z,14.10
2022-11-07T20:49:25.813Z,14.00
2022-11-07T20:51:54.263Z,14.00
2022-11-07T20:54:22.858Z,13.90
2022-11-07T20:56:52.751Z,13.90
2022-11-07T20:59:21.263Z,13.90
2022-11-07T21:01:51.225Z,13.80
2022-11-07T21:04:20.452Z,13.80
2022-11-07T21:06:49.034Z,13.70
2022-11-07T21:09:17.363Z,13.70
2022-11-07T21:11:45.693Z,13.60
2022-11-07T21:14:15.499Z,13.60
2022-11-07T21:16:44.318Z,13.50
2022-11-07T21:19:15.628Z,13.40
2022-11-07T21:21:44.486Z,13.40
2022-11-07T21:24:12.877Z,13.30
2022-11-07T21:26:41.430Z,13.40
2022-11-07T21:29:11.083Z,13.30
2022-11-07T21:31:42.014Z,13.30
2022-11-07T21:34:11.629Z,13.30
2022-11-07T21:36:40.408Z,13.30
2022-11-07T21:39:08.970Z,13.30
2022-11-07T21:41:38.379Z,13.30
2022-11-07T21:48:58.592Z,13.40
2022-11-07T21:51:30.174Z,13.50
2022-11-07T21:53:59.612Z,13.50
2022-11-07T21:56:29.995Z,13.50
2022-11-07T21:59:00.662Z,13.50
2022-11-07T22:01:30.867Z,13.60
2022-11-07T22:04:06.765Z,13.60
2022-11-07T22:06:40.123Z,13.60
2022-11-07T22:09:10.235Z,13.60
2022-11-07T22:11:39.029Z,13.50
2022-11-07T22:14:07.541Z,13.40
2022-11-07T22:16:36.303Z,13.30
2022-11-07T22:19:11.212Z,13.30
2022-11-07T22:21:43.112Z,13.20
2022-11-07T22:24:12.243Z,13.10
2022-11-07T22:26:41.052Z,13.00
2022-11-07T22:29:09.645Z,13.00
2022-11-07T22:31:38.058Z,12.90
2022-11-07T22:34:06.744Z,12.90
2022-11-07T22:36:35.257Z,12.80
2022-11-07T22:39:05.431Z,12.80
2022-11-07T22:41:33.891Z,12.80
2022-11-07T22:44:02.606Z,12.70
2022-11-07T22:46:32.835Z,12.60
2022-11-07T22:49:02.008Z,12.60
2022-11-07T22:51:32.534Z,12.60
2022-11-07T22:54:03.383Z,12.50
2022-11-07T22:56:35.309Z,12.40
2022-11-07T22:59:03.990Z,12.40
2022-11-07T23:01:35.254Z,12.30
2022-11-07T23:04:04.114Z,12.20
2022-11-07T23:06:32.592Z,12.20
2022-11-07T23:09:01.781Z,12.10
2022-11-07T23:11:49.344Z,12.00
2022-11-07T23:14:20.628Z,11.90
2022-11-07T23:16:53.996Z,11.90
2022-11-07T23:19:24.131Z,11.90
2022-11-07T23:21:53.949Z,12.00
2022-11-07T23:24:22.427Z,11.90
2022-11-07T23:26:52.251Z,12.00
2022-11-07T23:29:23.108Z,12.00
2022-11-07T23:31:52.746Z,11.90
2022-11-07T23:34:22.452Z,11.90
2022-11-07T23:36:52.254Z,11.80
2022-11-07T23:39:22.275Z,11.80
2022-11-07T23:41:52.854Z,11.80
2022-11-07T23:44:21.954Z,11.80
2022-11-07T23:47:08.149Z,11.80
2022-11-07T23:49:50.599Z,11.80
2022-11-07T23:52:19.764Z,11.80
2022-11-07T23:55:08.709Z,11.80
2022-11-07T23:57:53.184Z,11.80
